sensor_id;sensor_type;location;lat;lon;timestamp;pressure;altitude;pressure_sealevel;temperature;humidity
44765;BME280;30484;52.382;5.260;2023-06-26T00:01:41;101246.28;;;27.55;100.00
44765;BME280;30484;52.382;5.260;2023-06-26T00:04:10;101242.47;;;27.56;100.00
44765;BME280;30484;52.382;5.260;2023-06-26T00:06:42;101249.06;;;27.47;100.00
44765;BME280;30484;52.382;5.260;2023-06-26T00:09:10;101242.88;;;27.45;100.00
44765;BME280;30484;52.382;5.260;2023-06-26T00:11:39;101244.63;;;27.37;100.00
44765;BME280;30484;52.382;5.260;2023-06-26T00:14:08;101249.72;;;27.01;100.00
44765;BME280;30484;52.382;5.260;2023-06-26T00:16:37;101248.97;;;27.24;100.00
44765;BME280;30484;52.382;5.260;2023-06-26T00:19:07;101240.56;;;27.17;100.00
44765;BME280;30484;52.382;5.260;2023-06-26T00:21:36;101241.44;;;27.09;100.00
44765;BME280;30484;52.382;5.260;2023-06-26T00:24:05;101236.09;;;27.24;100.00
44765;BME280;30484;52.382;5.260;2023-06-26T00:26:34;101237.47;;;27.20;100.00
44765;BME280;30484;52.382;5.260;2023-06-26T00:29:06;101236.44;;;27.21;100.00
44765;BME280;30484;52.382;5.260;2023-06-26T00:31:42;101227.59;;;27.11;100.00
44765;BME280;30484;52.382;5.260;2023-06-26T00:34:14;101240.59;;;27.09;100.00
44765;BME280;30484;52.382;5.260;2023-06-26T00:36:44;101230.09;;;27.20;100.00
44765;BME280;30484;52.382;5.260;2023-06-26T00:39:13;101229.59;;;27.17;100.00
44765;BME280;30484;52.382;5.260;2023-06-26T00:41:42;101229.28;;;27.12;100.00
44765;BME280;30484;52.382;5.260;2023-06-26T00:44:14;101224.16;;;27.09;100.00
44765;BME280;30484;52.382;5.260;2023-06-26T00:46:43;101217.13;;;27.06;100.00
44765;BME280;30484;52.382;5.260;2023-06-26T00:49:21;101225.03;;;27.01;100.00
44765;BME280;30484;52.382;5.260;2023-06-26T00:51:50;101231.88;;;27.05;100.00
44765;BME280;30484;52.382;5.260;2023-06-26T00:54:31;101236.22;;;26.91;100.00
44765;BME280;30484;52.382;5.260;2023-06-26T00:57:03;101235.22;;;26.76;100.00
44765;BME280;30484;52.382;5.260;2023-06-26T00:59:33;101237.94;;;26.84;100.00
44765;BME280;30484;52.382;5.260;2023-06-26T01:02:17;101241.34;;;26.94;100.00
44765;BME280;30484;52.382;5.260;2023-06-26T01:04:56;101243.06;;;26.87;100.00
44765;BME280;30484;52.382;5.260;2023-06-26T01:07:26;101244.09;;;26.61;100.00
44765;BME280;30484;52.382;5.260;2023-06-26T01:10:11;101235.72;;;26.63;100.00
44765;BME280;30484;52.382;5.260;2023-06-26T01:12:41;101245.81;;;26.70;100.00
44765;BME280;30484;52.382;5.260;2023-06-26T01:15:11;101241.72;;;26.75;100.00
44765;BME280;30484;52.382;5.260;2023-06-26T01:17:41;101253.53;;;26.50;100.00
44765;BME280;30484;52.382;5.260;2023-06-26T01:20:14;101252.16;;;26.63;100.00
44765;BME280;30484;52.382;5.260;2023-06-26T01:22:54;101257.47;;;26.31;100.00
44765;BME280;30484;52.382;5.260;2023-06-26T01:25:37;101253.38;;;26.35;100.00
44765;BME280;30484;52.382;5.260;2023-06-26T01:28:14;101262.59;;;26.26;100.00
44765;BME280;30484;52.382;5.260;2023-06-26T01:30:45;101253.22;;;26.45;100.00
44765;BME280;30484;52.382;5.260;2023-06-26T01:33:14;101261.94;;;26.32;100.00
44765;BME280;30484;52.382;5.260;2023-06-26T01:35:43;101269.78;;;26.03;100.00
44765;BME280;30484;52.382;5.260;2023-06-26T01:38:15;101269.06;;;26.00;100.00
44765;BME280;30484;52.382;5.260;2023-06-26T01:40:44;101258.59;;;25.96;100.00
44765;BME280;30484;52.382;5.260;2023-06-26T01:43:23;101263.16;;;25.71;100.00
44765;BME280;30484;52.382;5.260;2023-06-26T01:45:58;101268.28;;;25.74;100.00
44765;BME280;30484;52.382;5.260;2023-06-26T01:48:32;101258.00;;;25.59;100.00
44765;BME280;30484;52.382;5.260;2023-06-26T01:51:03;101263.28;;;25.61;100.00
44765;BME280;30484;52.382;5.260;2023-06-26T01:53:36;101260.78;;;25.76;100.00
44765;BME280;30484;52.382;5.260;2023-06-26T01:56:13;101256.22;;;25.42;100.00
44765;BME280;30484;52.382;5.260;2023-06-26T01:58:45;101253.91;;;25.63;100.00
44765;BME280;30484;52.382;5.260;2023-06-26T02:01:15;101262.75;;;25.14;100.00
44765;BME280;30484;52.382;5.260;2023-06-26T02:03:44;101261.09;;;25.64;100.00
44765;BME280;30484;52.382;5.260;2023-06-26T02:06:14;101258.84;;;25.25;100.00
44765;BME280;30484;52.382;5.260;2023-06-26T02:08:42;101269.72;;;25.09;100.00
44765;BME280;30484;52.382;5.260;2023-06-26T02:11:13;101268.03;;;25.16;100.00
44765;BME280;30484;52.382;5.260;2023-06-26T02:13:43;101284.63;;;25.49;100.00
44765;BME280;30484;52.382;5.260;2023-06-26T02:16:12;101274.91;;;24.94;100.00
44765;BME280;30484;52.382;5.260;2023-06-26T02:18:41;101269.22;;;24.61;100.00
44765;BME280;30484;52.382;5.260;2023-06-26T02:21:10;101292.31;;;24.67;100.00
44765;BME280;30484;52.382;5.260;2023-06-26T02:23:39;101282.78;;;24.71;100.00
44765;BME280;30484;52.382;5.260;2023-06-26T02:26:09;101260.97;;;24.53;100.00
44765;BME280;30484;52.382;5.260;2023-06-26T02:28:38;101278.06;;;24.81;100.00
44765;BME280;30484;52.382;5.260;2023-06-26T02:31:08;101264.06;;;24.76;100.00
44765;BME280;30484;52.382;5.260;2023-06-26T02:33:36;101279.44;;;24.59;100.00
44765;BME280;30484;52.382;5.260;2023-06-26T02:36:06;101286.16;;;24.46;100.00
44765;BME280;30484;52.382;5.260;2023-06-26T02:38:35;101289.91;;;24.27;100.00
44765;BME280;30484;52.382;5.260;2023-06-26T02:41:03;101288.03;;;24.64;100.00
44765;BME280;30484;52.382;5.260;2023-06-26T02:43:32;101286.47;;;24.43;100.00
44765;BME280;30484;52.382;5.260;2023-06-26T02:46:00;101290.28;;;24.33;100.00
44765;BME280;30484;52.382;5.260;2023-06-26T02:48:31;101291.00;;;24.35;100.00
44765;BME280;30484;52.382;5.260;2023-06-26T02:50:59;101293.66;;;24.44;100.00
44765;BME280;30484;52.382;5.260;2023-06-26T02:53:28;101296.16;;;24.38;100.00
44765;BME280;30484;52.382;5.260;2023-06-26T02:55:56;101294.09;;;24.40;100.00
44765;BME280;30484;52.382;5.260;2023-06-26T02:58:24;101300.03;;;23.99;100.00
44765;BME280;30484;52.382;5.260;2023-06-26T03:00:53;101297.25;;;24.09;100.00
44765;BME280;30484;52.382;5.260;2023-06-26T03:03:23;101297.16;;;24.01;100.00
44765;BME280;30484;52.382;5.260;2023-06-26T03:05:53;101293.97;;;24.23;100.00
44765;BME280;30484;52.382;5.260;2023-06-26T03:08:22;101305.75;;;24.06;100.00
44765;BME280;30484;52.382;5.260;2023-06-26T03:10:50;101301.69;;;24.10;100.00
44765;BME280;30484;52.382;5.260;2023-06-26T03:13:19;101306.03;;;24.03;100.00
44765;BME280;30484;52.382;5.260;2023-06-26T03:15:47;101306.19;;;23.73;100.00
44765;BME280;30484;52.382;5.260;2023-06-26T03:18:16;101303.88;;;24.24;100.00
44765;BME280;30484;52.382;5.260;2023-06-26T03:20:44;101302.28;;;24.04;100.00
44765;BME280;30484;52.382;5.260;2023-06-26T03:23:14;101315.69;;;23.97;100.00
44765;BME280;30484;52.382;5.260;2023-06-26T03:25:43;101322.13;;;24.06;100.00
44765;BME280;30484;52.382;5.260;2023-06-26T03:28:11;101333.63;;;24.00;100.00
44765;BME280;30484;52.382;5.260;2023-06-26T03:30:40;101323.97;;;24.05;100.00
44765;BME280;30484;52.382;5.260;2023-06-26T03:33:09;101352.72;;;23.72;100.00
44765;BME280;30484;52.382;5.260;2023-06-26T03:35:37;101367.25;;;23.63;100.00
44765;BME280;30484;52.382;5.260;2023-06-26T03:38:06;101363.97;;;23.97;100.00
44765;BME280;30484;52.382;5.260;2023-06-26T03:40:36;101371.59;;;23.55;100.00
44765;BME280;30484;52.382;5.260;2023-06-26T03:43:05;101347.44;;;23.98;100.00
44765;BME280;30484;52.382;5.260;2023-06-26T03:45:33;101355.19;;;23.65;100.00
44765;BME280;30484;52.382;5.260;2023-06-26T03:48:02;101344.63;;;23.52;100.00
44765;BME280;30484;52.382;5.260;2023-06-26T03:50:31;101355.19;;;23.37;100.00
44765;BME280;30484;52.382;5.260;2023-06-26T03:52:59;101359.31;;;23.79;100.00
44765;BME280;30484;52.382;5.260;2023-06-26T03:55:28;101350.81;;;23.82;100.00
44765;BME280;30484;52.382;5.260;2023-06-26T03:57:58;101369.59;;;23.85;100.00
44765;BME280;30484;52.382;5.260;2023-06-26T04:00:26;101358.34;;;23.70;100.00
44765;BME280;30484;52.382;5.260;2023-06-26T04:02:55;101372.34;;;23.48;100.00
44765;BME280;30484;52.382;5.260;2023-06-26T04:05:24;101372.88;;;23.61;100.00
44765;BME280;30484;52.382;5.260;2023-06-26T04:07:54;101383.91;;;23.69;100.00
44765;BME280;30484;52.382;5.260;2023-06-26T04:10:23;101374.88;;;23.69;100.00
44765;BME280;30484;52.382;5.260;2023-06-26T04:12:52;101386.78;;;23.68;100.00
44765;BME280;30484;52.382;5.260;2023-06-26T04:15:23;101390.13;;;23.61;100.00
44765;BME280;30484;52.382;5.260;2023-06-26T04:17:52;101391.16;;;23.41;100.00
44765;BME280;30484;52.382;5.260;2023-06-26T04:20:21;101400.13;;;23.71;100.00
44765;BME280;30484;52.382;5.260;2023-06-26T04:22:51;101393.53;;;23.64;100.00
44765;BME280;30484;52.382;5.260;2023-06-26T04:25:21;101395.63;;;23.42;100.00
44765;BME280;30484;52.382;5.260;2023-06-26T04:27:50;101410.56;;;23.38;100.00
44765;BME280;30484;52.382;5.260;2023-06-26T04:30:19;101417.97;;;23.55;100.00
44765;BME280;30484;52.382;5.260;2023-06-26T04:32:49;101430.47;;;23.48;100.00
44765;BME280;30484;52.382;5.260;2023-06-26T04:35:20;101424.19;;;23.38;100.00
44765;BME280;30484;52.382;5.260;2023-06-26T04:37:49;101438.66;;;23.48;100.00
44765;BME280;30484;52.382;5.260;2023-06-26T04:40:18;101427.50;;;23.32;100.00
44765;BME280;30484;52.382;5.260;2023-06-26T04:42:48;101423.50;;;22.97;100.00
44765;BME280;30484;52.382;5.260;2023-06-26T04:45:28;101428.66;;;22.90;100.00
44765;BME280;30484;52.382;5.260;2023-06-26T04:48:04;101441.16;;;23.12;100.00
44765;BME280;30484;52.382;5.260;2023-06-26T04:50:33;101443.41;;;22.58;100.00
44765;BME280;30484;52.382;5.260;2023-06-26T04:53:04;101443.91;;;23.12;100.00
44765;BME280;30484;52.382;5.260;2023-06-26T04:55:33;101450.44;;;23.49;100.00
44765;BME280;30484;52.382;5.260;2023-06-26T04:58:04;101445.50;;;23.62;100.00
44765;BME280;30484;52.382;5.260;2023-06-26T05:00:35;101447.50;;;23.70;100.00
44765;BME280;30484;52.382;5.260;2023-06-26T05:03:17;101450.03;;;23.34;100.00
44765;BME280;30484;52.382;5.260;2023-06-26T05:05:48;101461.38;;;23.39;100.00
44765;BME280;30484;52.382;5.260;2023-06-26T05:08:23;101470.22;;;23.51;100.00
44765;BME280;30484;52.382;5.260;2023-06-26T05:10:53;101459.81;;;23.74;100.00
44765;BME280;30484;52.382;5.260;2023-06-26T05:13:28;101437.59;;;23.12;100.00
44765;BME280;30484;52.382;5.260;2023-06-26T05:15:58;101443.13;;;23.10;100.00
44765;BME280;30484;52.382;5.260;2023-06-26T05:18:28;101457.63;;;23.40;100.00
44765;BME280;30484;52.382;5.260;2023-06-26T05:20:58;101459.50;;;23.39;100.00
44765;BME280;30484;52.382;5.260;2023-06-26T05:23:31;101459.88;;;23.54;100.00
44765;BME280;30484;52.382;5.260;2023-06-26T05:26:03;101461.53;;;23.85;100.00
44765;BME280;30484;52.382;5.260;2023-06-26T05:28:35;101466.09;;;23.84;100.00
44765;BME280;30484;52.382;5.260;2023-06-26T05:31:07;101473.44;;;23.84;100.00
44765;BME280;30484;52.382;5.260;2023-06-26T05:33:37;101472.63;;;23.64;100.00
44765;BME280;30484;52.382;5.260;2023-06-26T05:36:13;101477.50;;;23.70;100.00
44765;BME280;30484;52.382;5.260;2023-06-26T05:38:45;101477.97;;;23.55;100.00
44765;BME280;30484;52.382;5.260;2023-06-26T05:41:16;101484.03;;;23.30;100.00
44765;BME280;30484;52.382;5.260;2023-06-26T05:43:45;101483.34;;;23.85;100.00
44765;BME280;30484;52.382;5.260;2023-06-26T05:46:17;101497.72;;;23.87;100.00
44765;BME280;30484;52.382;5.260;2023-06-26T05:48:47;101488.84;;;24.50;100.00
44765;BME280;30484;52.382;5.260;2023-06-26T05:51:18;101497.69;;;23.97;100.00
44765;BME280;30484;52.382;5.260;2023-06-26T05:53:48;101502.28;;;24.06;100.00
44765;BME280;30484;52.382;5.260;2023-06-26T05:56:17;101515.53;;;23.71;100.00
44765;BME280;30484;52.382;5.260;2023-06-26T05:58:48;101511.16;;;24.08;100.00
44765;BME280;30484;52.382;5.260;2023-06-26T06:01:17;101520.69;;;23.84;100.00
44765;BME280;30484;52.382;5.260;2023-06-26T06:03:47;101511.06;;;24.55;100.00
44765;BME280;30484;52.382;5.260;2023-06-26T06:06:16;101526.53;;;24.37;100.00
44765;BME280;30484;52.382;5.260;2023-06-26T06:08:46;101532.94;;;24.27;100.00
44765;BME280;30484;52.382;5.260;2023-06-26T06:11:15;101539.09;;;24.67;100.00
44765;BME280;30484;52.382;5.260;2023-06-26T06:13:44;101548.50;;;24.17;100.00
44765;BME280;30484;52.382;5.260;2023-06-26T06:16:12;101540.34;;;24.35;100.00
44765;BME280;30484;52.382;5.260;2023-06-26T06:18:41;101547.63;;;24.82;100.00
44765;BME280;30484;52.382;5.260;2023-06-26T06:21:12;101547.06;;;24.78;100.00
44765;BME280;30484;52.382;5.260;2023-06-26T06:23:40;101547.66;;;24.72;100.00
44765;BME280;30484;52.382;5.260;2023-06-26T06:26:09;101550.03;;;24.57;100.00
44765;BME280;30484;52.382;5.260;2023-06-26T06:28:38;101553.75;;;24.66;100.00
44765;BME280;30484;52.382;5.260;2023-06-26T06:31:07;101561.97;;;24.56;100.00
44765;BME280;30484;52.382;5.260;2023-06-26T06:33:39;101573.91;;;24.55;100.00
44765;BME280;30484;52.382;5.260;2023-06-26T06:36:10;101589.28;;;24.56;100.00
44765;BME280;30484;52.382;5.260;2023-06-26T06:38:42;101585.38;;;24.69;100.00
44765;BME280;30484;52.382;5.260;2023-06-26T06:41:11;101587.09;;;24.70;100.00
44765;BME280;30484;52.382;5.260;2023-06-26T06:43:41;101600.75;;;24.70;100.00
44765;BME280;30484;52.382;5.260;2023-06-26T06:46:10;101600.38;;;25.10;100.00
44765;BME280;30484;52.382;5.260;2023-06-26T06:48:38;101596.25;;;25.24;100.00
44765;BME280;30484;52.382;5.260;2023-06-26T06:51:07;101589.38;;;25.20;100.00
44765;BME280;30484;52.382;5.260;2023-06-26T06:53:37;101595.34;;;25.33;100.00
44765;BME280;30484;52.382;5.260;2023-06-26T06:56:06;101602.06;;;25.57;100.00
44765;BME280;30484;52.382;5.260;2023-06-26T06:58:34;101608.81;;;25.17;100.00
44765;BME280;30484;52.382;5.260;2023-06-26T07:01:03;101605.84;;;25.10;100.00
44765;BME280;30484;52.382;5.260;2023-06-26T07:03:31;101612.13;;;25.57;100.00
44765;BME280;30484;52.382;5.260;2023-06-26T07:06:05;101627.56;;;25.40;100.00
44765;BME280;30484;52.382;5.260;2023-06-26T07:08:36;101625.81;;;24.93;100.00
44765;BME280;30484;52.382;5.260;2023-06-26T07:11:04;101625.34;;;25.43;100.00
44765;BME280;30484;52.382;5.260;2023-06-26T07:13:33;101618.31;;;25.77;100.00
44765;BME280;30484;52.382;5.260;2023-06-26T07:16:01;101623.22;;;25.91;100.00
44765;BME280;30484;52.382;5.260;2023-06-26T07:18:30;101622.84;;;25.68;100.00
44765;BME280;30484;52.382;5.260;2023-06-26T07:20:58;101624.09;;;26.18;100.00
44765;BME280;30484;52.382;5.260;2023-06-26T07:23:27;101632.06;;;26.03;100.00
44765;BME280;30484;52.382;5.260;2023-06-26T07:25:57;101634.97;;;25.47;100.00
44765;BME280;30484;52.382;5.260;2023-06-26T07:28:25;101629.59;;;26.00;100.00
44765;BME280;30484;52.382;5.260;2023-06-26T07:30:53;101632.25;;;26.36;100.00
44765;BME280;30484;52.382;5.260;2023-06-26T07:33:22;101622.56;;;26.15;100.00
44765;BME280;30484;52.382;5.260;2023-06-26T07:35:50;101637.22;;;25.88;100.00
44765;BME280;30484;52.382;5.260;2023-06-26T07:38:18;101629.50;;;25.47;100.00
44765;BME280;30484;52.382;5.260;2023-06-26T07:40:47;101648.47;;;25.85;100.00
44765;BME280;30484;52.382;5.260;2023-06-26T07:43:17;101650.41;;;26.11;100.00
44765;BME280;30484;52.382;5.260;2023-06-26T07:45:45;101653.44;;;26.26;100.00
44765;BME280;30484;52.382;5.260;2023-06-26T07:48:14;101649.06;;;26.15;100.00
44765;BME280;30484;52.382;5.260;2023-06-26T07:50:42;101653.63;;;26.06;100.00
44765;BME280;30484;52.382;5.260;2023-06-26T07:53:10;101653.38;;;26.17;100.00
44765;BME280;30484;52.382;5.260;2023-06-26T07:55:39;101661.00;;;26.06;100.00
44765;BME280;30484;52.382;5.260;2023-06-26T07:58:07;101668.28;;;26.41;100.00
44765;BME280;30484;52.382;5.260;2023-06-26T08:00:38;101661.97;;;26.23;100.00
44765;BME280;30484;52.382;5.260;2023-06-26T08:03:06;101656.84;;;26.01;100.00
44765;BME280;30484;52.382;5.260;2023-06-26T08:05:48;101668.59;;;26.38;100.00
44765;BME280;30484;52.382;5.260;2023-06-26T08:08:16;101671.69;;;26.17;100.00
44765;BME280;30484;52.382;5.260;2023-06-26T08:10:45;101678.63;;;26.29;100.00
44765;BME280;30484;52.382;5.260;2023-06-26T08:13:13;101673.81;;;25.87;100.00
44765;BME280;30484;52.382;5.260;2023-06-26T08:15:43;101670.78;;;26.08;100.00
44765;BME280;30484;52.382;5.260;2023-06-26T08:18:12;101673.22;;;26.98;100.00
44765;BME280;30484;52.382;5.260;2023-06-26T08:20:40;101685.66;;;26.32;100.00
44765;BME280;30484;52.382;5.260;2023-06-26T08:23:08;101692.44;;;26.20;100.00
44765;BME280;30484;52.382;5.260;2023-06-26T08:25:37;101692.75;;;26.43;100.00
44765;BME280;30484;52.382;5.260;2023-06-26T08:28:05;101684.94;;;26.56;100.00
44765;BME280;30484;52.382;5.260;2023-06-26T08:30:33;101694.66;;;27.03;100.00
44765;BME280;30484;52.382;5.260;2023-06-26T08:33:03;101689.13;;;27.37;100.00
44765;BME280;30484;52.382;5.260;2023-06-26T08:35:32;101698.56;;;27.00;100.00
44765;BME280;30484;52.382;5.260;2023-06-26T08:38:00;101715.16;;;27.25;100.00
44765;BME280;30484;52.382;5.260;2023-06-26T08:40:33;101703.25;;;26.74;100.00
44765;BME280;30484;52.382;5.260;2023-06-26T08:43:06;101716.31;;;26.80;100.00
44765;BME280;30484;52.382;5.260;2023-06-26T08:45:35;101715.94;;;26.75;100.00
44765;BME280;30484;52.382;5.260;2023-06-26T08:48:08;101715.97;;;26.83;100.00
44765;BME280;30484;52.382;5.260;2023-06-26T08:50:38;101721.75;;;26.72;100.00
44765;BME280;30484;52.382;5.260;2023-06-26T08:53:19;101722.84;;;26.34;100.00
44765;BME280;30484;52.382;5.260;2023-06-26T08:55:52;101727.41;;;26.52;100.00
44765;BME280;30484;52.382;5.260;2023-06-26T08:58:21;101733.38;;;26.03;100.00
44765;BME280;30484;52.382;5.260;2023-06-26T09:00:49;101707.91;;;26.11;100.00
44765;BME280;30484;52.382;5.260;2023-06-26T09:03:19;101738.69;;;26.49;100.00
44765;BME280;30484;52.382;5.260;2023-06-26T09:05:49;101740.94;;;26.53;100.00
44765;BME280;30484;52.382;5.260;2023-06-26T09:08:17;101736.16;;;26.74;100.00
44765;BME280;30484;52.382;5.260;2023-06-26T09:10:46;101745.22;;;27.35;100.00
44765;BME280;30484;52.382;5.260;2023-06-26T09:13:15;101744.34;;;27.34;100.00
44765;BME280;30484;52.382;5.260;2023-06-26T09:15:56;101748.72;;;27.70;100.00
44765;BME280;30484;52.382;5.260;2023-06-26T09:18:29;101752.69;;;27.76;100.00
44765;BME280;30484;52.382;5.260;2023-06-26T09:20:57;101756.00;;;27.02;100.00
44765;BME280;30484;52.382;5.260;2023-06-26T09:23:26;101771.19;;;27.23;100.00
44765;BME280;30484;52.382;5.260;2023-06-26T09:25:55;101767.00;;;26.76;100.00
44765;BME280;30484;52.382;5.260;2023-06-26T09:28:24;101770.13;;;27.15;100.00
44765;BME280;30484;52.382;5.260;2023-06-26T09:30:53;101767.94;;;27.27;100.00
44765;BME280;30484;52.382;5.260;2023-06-26T09:33:21;101769.94;;;27.43;100.00
44765;BME280;30484;52.382;5.260;2023-06-26T09:35:51;101773.38;;;26.58;100.00
44765;BME280;30484;52.382;5.260;2023-06-26T09:38:19;101785.16;;;27.03;100.00
44765;BME280;30484;52.382;5.260;2023-06-26T09:40:48;101774.66;;;27.33;100.00
44765;BME280;30484;52.382;5.260;2023-06-26T09:43:17;101780.78;;;27.53;100.00
44765;BME280;30484;52.382;5.260;2023-06-26T09:45:46;101790.34;;;27.49;100.00
44765;BME280;30484;52.382;5.260;2023-06-26T09:48:15;101786.38;;;27.35;100.00
44765;BME280;30484;52.382;5.260;2023-06-26T09:50:45;101793.38;;;27.72;100.00
44765;BME280;30484;52.382;5.260;2023-06-26T09:53:36;101799.66;;;27.56;100.00
44765;BME280;30484;52.382;5.260;2023-06-26T09:56:10;101797.84;;;26.78;100.00
44765;BME280;30484;52.382;5.260;2023-06-26T09:58:44;101800.94;;;27.35;100.00
44765;BME280;30484;52.382;5.260;2023-06-26T10:01:13;101799.06;;;26.83;100.00
44765;BME280;30484;52.382;5.260;2023-06-26T10:03:42;101798.41;;;27.42;100.00
44765;BME280;30484;52.382;5.260;2023-06-26T10:06:12;101806.19;;;27.55;100.00
44765;BME280;30484;52.382;5.260;2023-06-26T10:08:42;101795.28;;;27.37;100.00
44765;BME280;30484;52.382;5.260;2023-06-26T10:11:16;101812.84;;;27.18;100.00
44765;BME280;30484;52.382;5.260;2023-06-26T10:13:46;101815.88;;;27.15;100.00
44765;BME280;30484;52.382;5.260;2023-06-26T10:16:21;101816.50;;;27.00;100.00
44765;BME280;30484;52.382;5.260;2023-06-26T10:18:53;101815.56;;;27.44;100.00
44765;BME280;30484;52.382;5.260;2023-06-26T10:21:27;101815.69;;;27.34;100.00
44765;BME280;30484;52.382;5.260;2023-06-26T10:23:59;101829.88;;;27.64;100.00
44765;BME280;30484;52.382;5.260;2023-06-26T10:26:28;101836.47;;;27.37;100.00
44765;BME280;30484;52.382;5.260;2023-06-26T10:28:57;101833.44;;;28.07;100.00
44765;BME280;30484;52.382;5.260;2023-06-26T10:31:28;101840.69;;;28.41;100.00
44765;BME280;30484;52.382;5.260;2023-06-26T10:33:58;101841.34;;;28.02;100.00
44765;BME280;30484;52.382;5.260;2023-06-26T10:36:31;101831.59;;;27.65;100.00
44765;BME280;30484;52.382;5.260;2023-06-26T10:39:04;101828.00;;;28.40;100.00
44765;BME280;30484;52.382;5.260;2023-06-26T10:41:37;101832.78;;;28.30;100.00
44765;BME280;30484;52.382;5.260;2023-06-26T10:44:16;101839.88;;;27.82;100.00
44765;BME280;30484;52.382;5.260;2023-06-26T10:46:52;101840.00;;;28.15;100.00
44765;BME280;30484;52.382;5.260;2023-06-26T10:49:27;101843.19;;;27.94;100.00
44765;BME280;30484;52.382;5.260;2023-06-26T10:52:01;101844.28;;;28.01;100.00
44765;BME280;30484;52.382;5.260;2023-06-26T10:54:34;101846.03;;;27.76;100.00
44765;BME280;30484;52.382;5.260;2023-06-26T10:57:04;101846.97;;;27.50;100.00
44765;BME280;30484;52.382;5.260;2023-06-26T10:59:39;101853.31;;;27.85;100.00
44765;BME280;30484;52.382;5.260;2023-06-26T11:02:10;101862.47;;;27.33;100.00
44765;BME280;30484;52.382;5.260;2023-06-26T11:04:43;101874.31;;;27.60;100.00
44765;BME280;30484;52.382;5.260;2023-06-26T11:07:19;101875.56;;;27.73;100.00
44765;BME280;30484;52.382;5.260;2023-06-26T11:09:59;101881.31;;;27.97;100.00
44765;BME280;30484;52.382;5.260;2023-06-26T11:12:45;101883.34;;;27.95;100.00
44765;BME280;30484;52.382;5.260;2023-06-26T11:15:17;101875.59;;;27.90;100.00
44765;BME280;30484;52.382;5.260;2023-06-26T11:17:46;101870.38;;;28.05;100.00
44765;BME280;30484;52.382;5.260;2023-06-26T11:20:16;101880.56;;;28.29;100.00
44765;BME280;30484;52.382;5.260;2023-06-26T11:22:45;101886.44;;;29.25;100.00
44765;BME280;30484;52.382;5.260;2023-06-26T11:25:14;101894.63;;;29.41;100.00
44765;BME280;30484;52.382;5.260;2023-06-26T11:27:44;101879.28;;;29.47;100.00
44765;BME280;30484;52.382;5.260;2023-06-26T11:30:25;101890.53;;;29.13;100.00
44765;BME280;30484;52.382;5.260;2023-06-26T11:33:03;101882.09;;;29.39;100.00
44765;BME280;30484;52.382;5.260;2023-06-26T11:35:32;101890.50;;;29.46;100.00
44765;BME280;30484;52.382;5.260;2023-06-26T11:38:02;101901.13;;;29.57;100.00
44765;BME280;30484;52.382;5.260;2023-06-26T11:40:36;101903.09;;;29.32;100.00
44765;BME280;30484;52.382;5.260;2023-06-26T11:43:06;101910.59;;;29.54;100.00
44765;BME280;30484;52.382;5.260;2023-06-26T11:45:34;101912.38;;;29.78;100.00
44765;BME280;30484;52.382;5.260;2023-06-26T11:48:04;101925.59;;;29.52;100.00
44765;BME280;30484;52.382;5.260;2023-06-26T11:50:36;101937.81;;;29.97;100.00
44765;BME280;30484;52.382;5.260;2023-06-26T11:53:06;101934.22;;;29.32;100.00
44765;BME280;30484;52.382;5.260;2023-06-26T11:55:42;101941.00;;;29.77;100.00
44765;BME280;30484;52.382;5.260;2023-06-26T11:58:11;101938.06;;;29.87;100.00
44765;BME280;30484;52.382;5.260;2023-06-26T12:00:41;101932.91;;;29.76;100.00
44765;BME280;30484;52.382;5.260;2023-06-26T12:03:10;101937.16;;;28.89;100.00
44765;BME280;30484;52.382;5.260;2023-06-26T12:05:42;101943.16;;;29.18;100.00
44765;BME280;30484;52.382;5.260;2023-06-26T12:08:12;101955.06;;;29.26;100.00
44765;BME280;30484;52.382;5.260;2023-06-26T12:10:42;101954.50;;;29.48;100.00
44765;BME280;30484;52.382;5.260;2023-06-26T12:13:10;101953.16;;;29.35;100.00
44765;BME280;30484;52.382;5.260;2023-06-26T12:15:38;101960.69;;;28.75;100.00
44765;BME280;30484;52.382;5.260;2023-06-26T12:18:08;101955.91;;;28.78;100.00
44765;BME280;30484;52.382;5.260;2023-06-26T12:20:40;101954.53;;;28.73;100.00
44765;BME280;30484;52.382;5.260;2023-06-26T12:23:12;101958.47;;;29.20;100.00
44765;BME280;30484;52.382;5.260;2023-06-26T12:25:42;101956.75;;;29.36;100.00
44765;BME280;30484;52.382;5.260;2023-06-26T12:28:17;101957.56;;;28.54;100.00
44765;BME280;30484;52.382;5.260;2023-06-26T12:30:47;101969.66;;;29.43;100.00
44765;BME280;30484;52.382;5.260;2023-06-26T12:33:16;101967.59;;;29.04;100.00
44765;BME280;30484;52.382;5.260;2023-06-26T12:35:45;101978.47;;;28.38;100.00
44765;BME280;30484;52.382;5.260;2023-06-26T12:38:14;101972.31;;;28.53;100.00
44765;BME280;30484;52.382;5.260;2023-06-26T12:40:49;101973.72;;;28.57;100.00
44765;BME280;30484;52.382;5.260;2023-06-26T12:43:23;101973.22;;;28.62;100.00
44765;BME280;30484;52.382;5.260;2023-06-26T12:45:55;101972.69;;;28.58;100.00
44765;BME280;30484;52.382;5.260;2023-06-26T12:48:37;101980.84;;;29.50;100.00
44765;BME280;30484;52.382;5.260;2023-06-26T12:51:10;101988.72;;;30.18;100.00
44765;BME280;30484;52.382;5.260;2023-06-26T12:53:39;101992.31;;;30.58;100.00
44765;BME280;30484;52.382;5.260;2023-06-26T12:56:10;101993.81;;;30.92;100.00
44765;BME280;30484;52.382;5.260;2023-06-26T12:58:38;101990.56;;;29.77;100.00